Time;durP1;ratioP1;P1;durP2;ratioP2;P2;SDS_P1;SDS_P2;PMS_P1;PMS_P2;Temp;Humidity;BMP_temperature;BMP_pressure;BME280_temperature;BME280_humidity;BME280_pressure;Samples;Min_cycle;Max_cycle;Signal;HPM_P1;HPM_P2
2021/08/04 00:01:11;;;;;;;9.93;8.80;;;;;;;;;;5119263;28;20455;-57
2021/08/04 00:03:38;;;;;;;9.67;8.00;;;;;;;;;;5119649;28;20466;-55
2021/08/04 00:06:30;;;;;;;8.87;7.23;;;;;;;;;;5118608;28;20446;-54
2021/08/04 00:08:59;;;;;;;11.10;8.97;;;;;;;;;;5119609;28;20468;-52
2021/08/04 00:11:26;;;;;;;8.60;7.73;;;;;;;;;;5119672;28;20472;-56
2021/08/04 00:13:56;;;;;;;10.20;6.60;;;;;;;;;;5119353;28;20470;-56
2021/08/04 00:16:23;;;;;;;7.83;7.03;;;;;;;;;;5117156;28;20487;-57
2021/08/04 00:18:51;;;;;;;8.63;7.60;;;;;;;;;;5119482;28;20498;-56
2021/08/04 00:21:37;;;;;;;13.23;7.93;;;;;;;;;;5119276;28;20454;-53
2021/08/04 00:24:05;;;;;;;12.70;7.37;;;;;;;;;;5119553;28;20494;-56
2021/08/04 00:26:33;;;;;;;8.20;6.90;;;;;;;;;;5119263;28;20463;-52
2021/08/04 00:29:00;;;;;;;11.60;6.40;;;;;;;;;;5119304;28;20452;-58
2021/08/04 00:31:27;;;;;;;11.10;5.90;;;;;;;;;;5119088;28;20446;-54
2021/08/04 00:33:55;;;;;;;8.70;6.70;;;;;;;;;;5118504;28;20486;-54
2021/08/04 00:36:27;;;;;;;10.37;7.13;;;;;;;;;;5119293;28;20451;-58
2021/08/04 00:38:56;;;;;;;8.07;6.63;;;;;;;;;;5119012;28;20471;-54
2021/08/04 00:41:25;;;;;;;10.33;5.97;;;;;;;;;;5118965;28;20462;-55
2021/08/04 00:44:04;;;;;;;8.30;6.07;;;;;;;;;;5118679;28;20455;-53
2021/08/04 00:46:31;;;;;;;11.13;5.93;;;;;;;;;;5118741;28;20455;-58
2021/08/04 00:48:59;;;;;;;7.07;6.00;;;;;;;;;;5118556;28;20466;-56
2021/08/04 00:51:32;;;;;;;7.00;5.87;;;;;;;;;;5118870;28;20447;-51
2021/08/04 00:53:59;;;;;;;11.53;6.10;;;;;;;;;;5119063;28;20466;-52
2021/08/04 00:56:28;;;;;;;6.90;6.13;;;;;;;;;;5119162;28;20416;-54
2021/08/04 00:59:06;;;;;;;7.67;6.37;;;;;;;;;;5118760;28;20535;-54
2021/08/04 01:01:37;;;;;;;8.23;6.80;;;;;;;;;;5119033;28;20485;-57
2021/08/04 01:04:08;;;;;;;8.17;6.63;;;;;;;;;;5118448;28;20452;-57
2021/08/04 01:06:53;;;;;;;8.43;6.60;;;;;;;;;;5118928;28;20458;-55
2021/08/04 01:09:20;;;;;;;7.90;7.00;;;;;;;;;;5117018;28;20490;-57
2021/08/04 01:11:56;;;;;;;8.60;7.00;;;;;;;;;;5118557;28;20473;-55
2021/08/04 01:14:27;;;;;;;8.73;6.73;;;;;;;;;;5118178;28;20459;-56
2021/08/04 01:16:56;;;;;;;8.63;7.30;;;;;;;;;;5118524;28;20459;-56
2021/08/04 01:19:29;;;;;;;7.80;6.60;;;;;;;;;;5118408;28;20480;-56
2021/08/04 01:22:13;;;;;;;9.03;5.63;;;;;;;;;;5118296;28;20447;-55
2021/08/04 01:24:46;;;;;;;8.97;6.80;;;;;;;;;;5118182;28;20468;-54
2021/08/04 01:27:15;;;;;;;7.20;6.40;;;;;;;;;;5118584;28;20455;-53
2021/08/04 01:29:43;;;;;;;10.50;6.73;;;;;;;;;;5118417;28;20470;-53
2021/08/04 01:32:11;;;;;;;7.87;5.60;;;;;;;;;;5118410;28;20455;-53
2021/08/04 01:37:43;;;;;;;5.73;5.13;;;;;;;;;;5118190;28;20413;-55
2021/08/04 01:40:11;;;;;;;7.97;6.77;;;;;;;;;;5117169;28;20474;-57
2021/08/04 01:43:00;;;;;;;6.63;5.93;;;;;;;;;;5117801;28;20455;-56
2021/08/04 01:45:29;;;;;;;6.43;4.90;;;;;;;;;;5118074;28;20451;-57
2021/08/04 01:47:57;;;;;;;9.00;5.30;;;;;;;;;;5117722;28;20455;-56
2021/08/04 01:50:27;;;;;;;6.10;5.00;;;;;;;;;;5118061;28;20462;-55
2021/08/04 01:52:54;;;;;;;5.80;4.90;;;;;;;;;;5117509;28;20485;-54
2021/08/04 01:55:22;;;;;;;5.97;4.90;;;;;;;;;;5117514;28;20420;-55
2021/08/04 01:57:50;;;;;;;5.40;4.67;;;;;;;;;;5117400;28;20458;-52
2021/08/04 02:00:17;;;;;;;6.27;4.63;;;;;;;;;;5117288;28;20487;-57
2021/08/04 02:02:45;;;;;;;7.50;6.70;;;;;;;;;;5117530;28;20459;-54
2021/08/04 02:05:47;;;;;;;7.00;5.10;;;;;;;;;;5118128;28;20439;-57
2021/08/04 02:08:20;;;;;;;6.30;5.20;;;;;;;;;;5115976;28;20470;-54
2021/08/04 02:10:51;;;;;;;9.20;7.10;;;;;;;;;;5117550;28;20455;-54
2021/08/04 02:13:31;;;;;;;28.90;22.97;;;;;;;;;;5117559;28;20463;-55
2021/08/04 02:16:02;;;;;;;11.20;8.50;;;;;;;;;;5117336;28;20466;-52
2021/08/04 02:18:32;;;;;;;8.40;7.30;;;;;;;;;;5117429;28;20465;-57
2021/08/04 02:21:11;;;;;;;8.70;6.23;;;;;;;;;;5117391;28;20466;-54
2021/08/04 02:23:39;;;;;;;9.57;6.93;;;;;;;;;;5117734;28;20516;-53
2021/08/04 02:26:08;;;;;;;9.27;6.80;;;;;;;;;;5117757;28;20455;-54
2021/08/04 02:28:37;;;;;;;9.80;7.53;;;;;;;;;;5117433;28;20462;-54
2021/08/04 02:31:07;;;;;;;9.23;7.37;;;;;;;;;;5116894;28;20459;-55
2021/08/04 02:33:57;;;;;;;12.07;8.70;;;;;;;;;;5117148;28;20427;-53
2021/08/04 02:36:26;;;;;;;12.50;10.10;;;;;;;;;;5117195;28;20443;-51
2021/08/04 02:38:56;;;;;;;12.90;10.00;;;;;;;;;;5117349;28;20479;-52
2021/08/04 02:44:27;;;;;;;13.70;10.60;;;;;;;;;;5117039;28;20448;-55
2021/08/04 02:46:54;;;;;;;13.40;11.00;;;;;;;;;;5116622;28;20455;-54
2021/08/04 02:49:22;;;;;;;16.73;10.30;;;;;;;;;;5116761;28;20455;-55
2021/08/04 02:51:50;;;;;;;12.50;9.60;;;;;;;;;;5115727;28;20463;-58
2021/08/04 02:54:19;;;;;;;10.77;9.20;;;;;;;;;;5116553;28;20444;-56
2021/08/04 02:56:46;;;;;;;12.10;10.27;;;;;;;;;;5116905;28;20455;-58
2021/08/04 02:59:13;;;;;;;12.87;10.67;;;;;;;;;;5116176;28;20487;-57
2021/08/04 03:01:41;;;;;;;16.40;11.20;;;;;;;;;;5116821;28;20467;-50
2021/08/04 03:04:11;;;;;;;16.03;10.87;;;;;;;;;;5116588;28;20463;-57
2021/08/04 03:06:40;;;;;;;12.30;9.57;;;;;;;;;;5117077;28;20439;-57
2021/08/04 03:09:10;;;;;;;14.00;10.17;;;;;;;;;;5095670;28;20448;-55
2021/08/04 03:11:41;;;;;;;13.23;10.80;;;;;;;;;;5096077;28;20503;-57
2021/08/04 03:14:08;;;;;;;12.80;11.37;;;;;;;;;;5096116;28;20650;-54
2021/08/04 03:16:35;;;;;;;15.57;12.43;;;;;;;;;;5095753;28;20459;-55
2021/08/04 03:19:35;;;;;;;16.40;14.20;;;;;;;;;;5096350;28;20472;-53
2021/08/04 03:22:03;;;;;;;15.87;12.70;;;;;;;;;;5081842;28;20490;-54
2021/08/04 03:24:32;;;;;;;18.47;15.27;;;;;;;;;;5096273;28;20472;-56
2021/08/04 03:27:23;;;;;;;18.70;14.77;;;;;;;;;;5096663;28;20440;-56
2021/08/04 03:29:50;;;;;;;20.37;15.83;;;;;;;;;;5075824;28;20461;-55
2021/08/04 03:32:18;;;;;;;22.40;18.03;;;;;;;;;;5076106;28;20752;-61
2021/08/04 03:34:55;;;;;;;21.03;17.30;;;;;;;;;;5077208;28;20453;-57
2021/08/04 03:37:22;;;;;;;19.73;15.90;;;;;;;;;;5108952;28;20509;-56
2021/08/04 03:39:51;;;;;;;19.80;17.70;;;;;;;;;;5115493;28;20486;-54
2021/08/04 03:42:19;;;;;;;24.30;18.00;;;;;;;;;;5115963;28;20469;-55
2021/08/04 03:44:47;;;;;;;20.83;18.60;;;;;;;;;;5115589;28;20497;-56
2021/08/04 03:50:28;;;;;;;23.93;20.50;;;;;;;;;;5116287;28;20419;-53
2021/08/04 03:53:02;;;;;;;25.00;18.30;;;;;;;;;;5115560;28;20435;-57
2021/08/04 03:55:32;;;;;;;26.13;18.47;;;;;;;;;;5116104;28;20473;-54
2021/08/04 03:58:00;;;;;;;29.40;22.67;;;;;;;;;;5116190;28;20447;-53
2021/08/04 04:00:27;;;;;;;28.83;21.80;;;;;;;;;;5115881;28;20491;-50
2021/08/04 04:02:54;;;;;;;24.67;19.83;;;;;;;;;;5117972;28;20502;-55
2021/08/04 04:05:38;;;;;;;24.10;18.27;;;;;;;;;;5119650;28;20427;-52
2021/08/04 04:08:05;;;;;;;23.60;20.30;;;;;;;;;;5119829;28;20443;-57
2021/08/04 04:10:34;;;;;;;34.30;25.00;;;;;;;;;;5119316;28;20454;-56
2021/08/04 04:13:14;;;;;;;38.40;29.97;;;;;;;;;;5119744;28;20455;-55
2021/08/04 04:15:44;;;;;;;40.70;32.47;;;;;;;;;;5102136;28;20471;-57
2021/08/04 04:18:14;;;;;;;25.33;19.77;;;;;;;;;;5119947;28;20498;-56
2021/08/04 04:21:17;;;;;;;29.97;22.23;;;;;;;;;;5119536;28;20467;-55
2021/08/04 04:23:44;;;;;;;26.43;21.20;;;;;;;;;;5119356;28;20443;-55
2021/08/04 04:26:12;;;;;;;31.30;20.90;;;;;;;;;;5119789;28;20435;-57
2021/08/04 04:29:20;;;;;;;31.03;22.63;;;;;;;;;;5119054;28;20443;-56
2021/08/04 04:31:47;;;;;;;27.73;21.23;;;;;;;;;;5119435;28;20490;-54
2021/08/04 04:34:15;;;;;;;29.83;21.53;;;;;;;;;;5119457;28;20435;-57
2021/08/04 04:36:50;;;;;;;23.63;19.57;;;;;;;;;;5118970;28;20477;-59
2021/08/04 04:39:18;;;;;;;24.60;19.93;;;;;;;;;;5109449;28;20470;-54
2021/08/04 04:44:51;;;;;;;29.10;19.50;;;;;;;;;;5110353;28;20477;-54
2021/08/04 04:47:19;;;;;;;25.63;21.40;;;;;;;;;;5118836;28;20466;-55
2021/08/04 04:49:58;;;;;;;26.97;20.17;;;;;;;;;;5118394;28;20432;-55
2021/08/04 04:52:26;;;;;;;30.40;23.10;;;;;;;;;;5118357;28;20431;-56
2021/08/04 04:54:55;;;;;;;30.43;23.67;;;;;;;;;;5110268;28;20470;-57
2021/08/04 05:00:07;;;;;;;33.53;23.63;;;;;;;;;;5116851;28;20475;-57
2021/08/04 05:02:39;;;;;;;28.97;20.00;;;;;;;;;;5118201;28;20459;-55
2021/08/04 05:05:09;;;;;;;34.03;24.00;;;;;;;;;;5118079;28;20468;-57
2021/08/04 05:07:39;;;;;;;32.10;23.47;;;;;;;;;;5117360;28;20447;-58
2021/08/04 05:13:15;;;;;;;40.73;28.80;;;;;;;;;;5115453;28;20465;-56
2021/08/04 05:15:44;;;;;;;44.87;28.90;;;;;;;;;;5117494;28;20822;-57
2021/08/04 05:18:29;;;;;;;42.93;30.30;;;;;;;;;;5117520;28;20461;-56
2021/08/04 05:21:00;;;;;;;45.70;29.60;;;;;;;;;;5117484;28;20475;-58
2021/08/04 05:23:28;;;;;;;41.70;29.27;;;;;;;;;;5116435;28;20474;-57
2021/08/04 05:25:55;;;;;;;51.27;31.23;;;;;;;;;;5117911;28;20440;-57
2021/08/04 05:28:22;;;;;;;43.63;31.57;;;;;;;;;;5116519;28;20428;-56
2021/08/04 05:30:52;;;;;;;40.27;27.90;;;;;;;;;;5116957;28;20443;-57
2021/08/04 05:33:20;;;;;;;49.23;30.07;;;;;;;;;;5117304;28;20489;-57
2021/08/04 05:35:47;;;;;;;43.27;29.63;;;;;;;;;;5117869;28;20455;-56
2021/08/04 05:38:25;;;;;;;37.80;27.20;;;;;;;;;;5117786;28;20444;-58
2021/08/04 05:40:54;;;;;;;36.10;27.83;;;;;;;;;;5116013;28;20475;-57
2021/08/04 05:43:22;;;;;;;36.33;28.27;;;;;;;;;;5116051;28;20500;-57
2021/08/04 05:46:10;;;;;;;40.80;28.00;;;;;;;;;;5115142;28;20456;-57
2021/08/04 05:48:37;;;;;;;39.90;29.33;;;;;;;;;;5103022;28;20519;-53
2021/08/04 05:51:05;;;;;;;37.77;28.07;;;;;;;;;;5096116;28;20468;-57
2021/08/04 05:53:34;;;;;;;34.17;26.70;;;;;;;;;;5101014;28;20665;-57
2021/08/04 05:56:14;;;;;;;35.77;26.30;;;;;;;;;;5116753;28;20462;-57
2021/08/04 05:58:41;;;;;;;36.47;30.07;;;;;;;;;;5115533;28;20463;-55
2021/08/04 06:01:10;;;;;;;40.93;29.57;;;;;;;;;;5116041;28;20464;-57
2021/08/04 06:03:42;;;;;;;39.23;29.40;;;;;;;;;;5117481;28;20447;-57
2021/08/04 06:06:11;;;;;;;38.73;28.20;;;;;;;;;;5117517;28;20465;-55
2021/08/04 06:08:39;;;;;;;41.67;28.77;;;;;;;;;;5112993;28;20451;-56
2021/08/04 06:11:11;;;;;;;41.93;32.17;;;;;;;;;;5115840;28;20436;-57
2021/08/04 06:13:43;;;;;;;35.80;29.20;;;;;;;;;;5113618;28;20464;-56
2021/08/04 06:16:22;;;;;;;39.93;29.43;;;;;;;;;;5116510;28;20479;-56
2021/08/04 06:19:00;;;;;;;37.63;29.17;;;;;;;;;;5115871;28;20435;-57
2021/08/04 06:21:40;;;;;;;38.27;30.13;;;;;;;;;;5095574;28;20506;-55
2021/08/04 06:24:11;;;;;;;44.10;29.57;;;;;;;;;;5095973;28;20464;-57
2021/08/04 06:26:50;;;;;;;44.03;31.07;;;;;;;;;;5098199;28;20487;-57
2021/08/04 06:29:17;;;;;;;39.10;28.80;;;;;;;;;;5115132;28;20470;-57
2021/08/04 06:31:49;;;;;;;45.67;29.30;;;;;;;;;;5104335;28;20473;-57
2021/08/04 06:34:17;;;;;;;39.17;28.50;;;;;;;;;;5115258;28;20436;-55
2021/08/04 06:36:47;;;;;;;39.37;28.17;;;;;;;;;;5116148;28;20429;-57
2021/08/04 06:39:14;;;;;;;35.40;28.27;;;;;;;;;;5115714;28;20446;-57
2021/08/04 06:41:42;;;;;;;38.20;27.23;;;;;;;;;;5115738;28;20537;-56
2021/08/04 06:44:28;;;;;;;33.53;26.10;;;;;;;;;;5115938;28;20483;-55
2021/08/04 06:47:03;;;;;;;38.30;28.73;;;;;;;;;;5111745;28;20544;-58
2021/08/04 06:49:40;;;;;;;35.93;28.20;;;;;;;;;;5115673;28;20447;-57
2021/08/04 06:52:12;;;;;;;37.00;28.40;;;;;;;;;;5115868;28;20476;-58
2021/08/04 06:54:40;;;;;;;40.63;29.10;;;;;;;;;;5113708;28;20488;-56
2021/08/04 06:57:12;;;;;;;40.80;28.67;;;;;;;;;;5115831;28;20467;-57
2021/08/04 06:59:54;;;;;;;32.87;28.03;;;;;;;;;;5115539;28;20465;-57
2021/08/04 07:02:23;;;;;;;35.03;27.70;;;;;;;;;;5111966;28;20563;-58
2021/08/04 07:04:50;;;;;;;37.73;27.93;;;;;;;;;;5115300;28;20445;-57
2021/08/04 07:07:18;;;;;;;43.00;31.43;;;;;;;;;;5115504;28;20465;-57
2021/08/04 07:09:49;;;;;;;38.33;28.30;;;;;;;;;;5114639;28;20441;-61
2021/08/04 07:12:53;;;;;;;33.77;26.43;;;;;;;;;;5115146;28;20448;-58
2021/08/04 07:15:23;;;;;;;40.97;27.57;;;;;;;;;;5112536;28;20449;-58
2021/08/04 07:18:02;;;;;;;31.03;26.80;;;;;;;;;;5115596;28;20450;-56
2021/08/04 07:20:39;;;;;;;32.40;26.80;;;;;;;;;;5115962;28;20501;-58
2021/08/04 07:23:07;;;;;;;38.23;26.63;;;;;;;;;;5052989;28;20434;-58
2021/08/04 07:25:34;;;;;;;32.03;26.60;;;;;;;;;;5053976;28;20440;-61
2021/08/04 07:28:01;;;;;;;33.87;26.27;;;;;;;;;;5054906;28;20500;-56
2021/08/04 07:30:31;;;;;;;32.53;25.97;;;;;;;;;;5054512;28;20488;-56
2021/08/04 07:33:02;;;;;;;33.50;27.33;;;;;;;;;;5055260;28;20448;-57
2021/08/04 07:35:29;;;;;;;34.77;28.50;;;;;;;;;;5055261;28;20453;-56
2021/08/04 07:37:57;;;;;;;33.90;28.67;;;;;;;;;;5056299;28;20476;-57
2021/08/04 07:40:26;;;;;;;38.00;29.00;;;;;;;;;;5057765;28;20524;-57
2021/08/04 07:42:53;;;;;;;34.80;29.57;;;;;;;;;;5057673;28;20528;-57
2021/08/04 07:45:21;;;;;;;35.50;28.03;;;;;;;;;;5056774;28;20503;-56
2021/08/04 07:47:49;;;;;;;35.00;26.97;;;;;;;;;;5057453;28;20459;-57
2021/08/04 07:50:19;;;;;;;34.30;26.03;;;;;;;;;;5058033;28;20859;-56
2021/08/04 07:52:47;;;;;;;33.73;27.67;;;;;;;;;;5058413;28;20464;-58
2021/08/04 07:55:20;;;;;;;36.03;30.70;;;;;;;;;;5060393;28;20456;-57
2021/08/04 07:57:48;;;;;;;33.70;27.00;;;;;;;;;;5059939;28;20640;-58
2021/08/04 08:00:16;;;;;;;32.97;27.83;;;;;;;;;;5058295;28;20461;-56
2021/08/04 08:02:48;;;;;;;33.43;29.07;;;;;;;;;;5058478;28;20442;-58
2021/08/04 08:05:17;;;;;;;29.20;24.93;;;;;;;;;;5058738;28;20453;-56
2021/08/04 08:07:48;;;;;;;36.10;30.67;;;;;;;;;;5069549;28;20464;-59
2021/08/04 08:10:21;;;;;;;37.23;30.20;;;;;;;;;;5063027;28;20464;-56
2021/08/04 08:12:48;;;;;;;33.87;27.97;;;;;;;;;;5070045;28;20546;-55
2021/08/04 08:15:16;;;;;;;34.93;31.13;;;;;;;;;;5060850;28;20437;-57
2021/08/04 08:17:49;;;;;;;35.03;30.20;;;;;;;;;;5078709;28;20448;-54
2021/08/04 08:20:20;;;;;;;39.60;33.37;;;;;;;;;;5077703;28;20519;-55
2021/08/04 08:22:47;;;;;;;33.50;29.73;;;;;;;;;;5086284;28;20484;-57
2021/08/04 08:25:27;;;;;;;34.43;30.63;;;;;;;;;;5077543;28;20496;-57
2021/08/04 08:27:55;;;;;;;35.17;31.37;;;;;;;;;;5077247;28;20481;-55
2021/08/04 08:30:22;;;;;;;43.23;36.87;;;;;;;;;;5067846;28;20453;-57
2021/08/04 08:32:54;;;;;;;38.97;32.83;;;;;;;;;;5077868;28;20421;-54
2021/08/04 08:35:47;;;;;;;36.80;32.87;;;;;;;;;;5077121;28;20457;-58
2021/08/04 08:38:36;;;;;;;41.00;35.33;;;;;;;;;;5078877;28;20463;-57
2021/08/04 08:41:06;;;;;;;41.47;34.53;;;;;;;;;;5058173;28;20491;-55
2021/08/04 08:46:38;;;;;;;37.73;32.70;;;;;;;;;;5057415;28;20417;-57
2021/08/04 08:49:06;;;;;;;40.80;33.37;;;;;;;;;;5054997;28;20457;-55
2021/08/04 08:51:45;;;;;;;38.33;33.87;;;;;;;;;;5056920;28;20461;-57
2021/08/04 08:54:14;;;;;;;38.77;33.30;;;;;;;;;;5050193;28;20479;-56
2021/08/04 08:56:47;;;;;;;37.17;31.07;;;;;;;;;;5077246;28;20422;-57
2021/08/04 08:59:22;;;;;;;39.97;35.67;;;;;;;;;;5109491;28;20461;-55
2021/08/04 09:01:59;;;;;;;35.20;31.50;;;;;;;;;;5116901;28;20495;-54
2021/08/04 09:04:26;;;;;;;40.80;35.70;;;;;;;;;;5117490;28;20435;-58
2021/08/04 09:06:59;;;;;;;41.20;31.57;;;;;;;;;;5117575;28;20451;-58
2021/08/04 09:10:02;;;;;;;40.93;34.90;;;;;;;;;;5118779;28;20431;-55
2021/08/04 09:12:32;;;;;;;37.37;31.17;;;;;;;;;;5115761;28;20462;-56
2021/08/04 09:15:00;;;;;;;33.43;28.40;;;;;;;;;;5117778;28;20455;-58
2021/08/04 09:17:29;;;;;;;34.90;31.17;;;;;;;;;;5117052;28;20466;-58
2021/08/04 09:19:59;;;;;;;34.53;30.77;;;;;;;;;;5117889;28;20439;-60
2021/08/04 09:22:28;;;;;;;35.10;31.30;;;;;;;;;;5117096;28;20479;-55
2021/08/04 09:25:00;;;;;;;36.03;30.70;;;;;;;;;;5116949;28;20519;-60
2021/08/04 09:27:50;;;;;;;37.10;32.00;;;;;;;;;;5116949;28;20450;-58
2021/08/04 09:30:19;;;;;;;33.17;28.70;;;;;;;;;;5116344;28;20475;-59
2021/08/04 09:32:47;;;;;;;33.87;28.00;;;;;;;;;;5115810;28;20489;-55
2021/08/04 09:35:18;;;;;;;33.90;30.30;;;;;;;;;;5116772;28;20450;-58
2021/08/04 09:37:48;;;;;;;32.73;27.30;;;;;;;;;;5117061;28;20419;-56
2021/08/04 09:40:47;;;;;;;37.83;30.03;;;;;;;;;;5115756;28;20439;-58
2021/08/04 09:43:27;;;;;;;33.23;28.20;;;;;;;;;;5096691;28;20444;-58
2021/08/04 09:45:59;;;;;;;36.87;28.83;;;;;;;;;;5096495;28;20519;-57
2021/08/04 09:48:28;;;;;;;35.63;29.90;;;;;;;;;;5096347;28;20440;-54
2021/08/04 09:50:57;;;;;;;28.13;25.17;;;;;;;;;;5100698;28;20454;-58
2021/08/04 09:53:32;;;;;;;28.03;23.50;;;;;;;;;;5107409;28;20463;-57
2021/08/04 09:56:19;;;;;;;28.60;25.00;;;;;;;;;;5096829;28;20454;-57
2021/08/04 09:58:51;;;;;;;30.27;24.57;;;;;;;;;;5103208;28;20475;-58
2021/08/04 10:01:20;;;;;;;29.73;24.93;;;;;;;;;;5116287;28;20478;-57
2021/08/04 10:04:01;;;;;;;24.43;21.83;;;;;;;;;;5116090;28;20432;-54
2021/08/04 10:06:29;;;;;;;26.10;21.87;;;;;;;;;;5107994;28;20689;-57
2021/08/04 10:09:20;;;;;;;26.97;22.37;;;;;;;;;;5116429;28;20660;-57
2021/08/04 10:11:49;;;;;;;23.93;19.47;;;;;;;;;;5116417;28;20461;-57
2021/08/04 10:14:44;;;;;;;24.63;21.50;;;;;;;;;;5116309;28;20447;-57
2021/08/04 10:17:15;;;;;;;24.67;20.47;;;;;;;;;;5115083;28;20486;-57
2021/08/04 10:19:48;;;;;;;26.13;21.23;;;;;;;;;;5116611;28;20466;-57
2021/08/04 10:22:16;;;;;;;20.40;17.17;;;;;;;;;;5116131;28;20490;-58
2021/08/04 10:24:51;;;;;;;20.53;16.27;;;;;;;;;;5116230;28;20458;-58
2021/08/04 10:27:37;;;;;;;21.43;16.60;;;;;;;;;;5115711;28;20435;-57
2021/08/04 10:30:14;;;;;;;18.87;16.10;;;;;;;;;;5115783;28;20482;-58
2021/08/04 10:32:43;;;;;;;21.27;15.97;;;;;;;;;;5115896;28;20514;-54
2021/08/04 10:35:18;;;;;;;17.97;16.07;;;;;;;;;;5116002;28;20451;-57
2021/08/04 10:37:53;;;;;;;18.10;15.50;;;;;;;;;;5115779;28;20485;-62
2021/08/04 10:40:46;;;;;;;17.70;15.80;;;;;;;;;;5115772;28;20500;-56
2021/08/04 10:43:30;;;;;;;15.00;13.20;;;;;;;;;;5112972;28;20499;-57
2021/08/04 10:45:59;;;;;;;16.90;15.10;;;;;;;;;;5094492;28;20432;-58
2021/08/04 10:48:29;;;;;;;15.20;13.60;;;;;;;;;;5112906;28;20443;-54
2021/08/04 10:51:16;;;;;;;16.93;14.77;;;;;;;;;;5115697;28;20448;-55
2021/08/04 10:54:14;;;;;;;14.23;11.50;;;;;;;;;;5112495;28;20554;-59
2021/08/04 10:57:05;;;;;;;15.87;10.73;;;;;;;;;;5013242;28;20467;-57
2021/08/04 10:59:37;;;;;;;14.00;11.10;;;;;;;;;;5090084;28;20466;-55
2021/08/04 11:02:27;;;;;;;13.23;10.93;;;;;;;;;;5114639;28;20489;-54
2021/08/04 11:04:59;;;;;;;15.20;12.80;;;;;;;;;;5109411;28;20439;-57
2021/08/04 11:07:40;;;;;;;16.43;14.47;;;;;;;;;;5113729;28;20442;-53
2021/08/04 11:10:07;;;;;;;16.43;12.33;;;;;;;;;;5113628;28;20491;-57
2021/08/04 11:12:43;;;;;;;13.10;10.40;;;;;;;;;;5100437;28;20462;-56
2021/08/04 11:15:29;;;;;;;14.53;11.43;;;;;;;;;;5106891;28;20468;-56
2021/08/04 11:17:58;;;;;;;12.77;11.10;;;;;;;;;;5114068;28;20466;-57
2021/08/04 11:20:28;;;;;;;16.27;13.03;;;;;;;;;;5114854;28;20465;-57
2021/08/04 11:22:55;;;;;;;18.40;14.20;;;;;;;;;;5115062;28;20479;-54
2021/08/04 11:25:31;;;;;;;20.87;16.10;;;;;;;;;;5098362;28;20440;-57
2021/08/04 11:28:18;;;;;;;20.17;16.37;;;;;;;;;;5113757;28;20443;-58
2021/08/04 11:30:49;;;;;;;17.97;15.53;;;;;;;;;;5113496;28;20434;-57
2021/08/04 11:34:03;;;;;;;14.70;12.50;;;;;;;;;;5097946;28;20472;-57
2021/08/04 11:36:34;;;;;;;18.70;14.43;;;;;;;;;;5112625;28;20447;-56
2021/08/04 11:39:05;;;;;;;17.27;15.47;;;;;;;;;;5115470;28;20546;-56
2021/08/04 11:41:43;;;;;;;28.43;20.23;;;;;;;;;;5114047;28;20501;-56
2021/08/04 11:44:13;;;;;;;17.13;14.40;;;;;;;;;;5111891;28;20474;-54
2021/08/04 11:46:41;;;;;;;17.80;14.90;;;;;;;;;;5113073;28;20443;-57
2021/08/04 11:52:22;;;;;;;13.03;11.63;;;;;;;;;;5110781;28;20504;-57
2021/08/04 11:54:50;;;;;;;13.60;12.20;;;;;;;;;;5115000;28;20454;-58
2021/08/04 11:57:30;;;;;;;16.80;13.37;;;;;;;;;;5115115;28;20455;-56
2021/08/04 11:59:58;;;;;;;13.40;11.37;;;;;;;;;;5114359;28;20459;-55
2021/08/04 12:02:33;;;;;;;10.30;8.43;;;;;;;;;;5114480;28;20475;-57
2021/08/04 12:05:01;;;;;;;15.93;14.30;;;;;;;;;;5113823;28;20451;-57
2021/08/04 12:07:43;;;;;;;10.57;9.47;;;;;;;;;;5113334;28;20459;-58
2021/08/04 12:10:11;;;;;;;9.10;8.20;;;;;;;;;;5097063;28;20463;-57
2021/08/04 12:12:40;;;;;;;12.33;9.00;;;;;;;;;;5113218;28;20455;-55
2021/08/04 12:15:15;;;;;;;11.07;9.93;;;;;;;;;;5113362;28;20481;-56
2021/08/04 12:17:43;;;;;;;14.20;12.50;;;;;;;;;;5099520;28;20476;-56
2021/08/04 12:20:12;;;;;;;14.40;10.23;;;;;;;;;;5112985;28;20481;-55
2021/08/04 12:22:41;;;;;;;14.97;11.17;;;;;;;;;;5113590;28;20483;-54
2021/08/04 12:25:20;;;;;;;8.87;7.13;;;;;;;;;;5117223;28;20458;-57
2021/08/04 12:27:49;;;;;;;7.80;6.40;;;;;;;;;;5117358;28;20474;-54
2021/08/04 12:30:30;;;;;;;9.37;5.67;;;;;;;;;;5116406;28;20443;-57
2021/08/04 12:33:13;;;;;;;5.20;4.10;;;;;;;;;;5112782;28;20450;-52
2021/08/04 12:35:42;;;;;;;12.00;6.63;;;;;;;;;;5115424;28;20446;-56
2021/08/04 12:38:13;;;;;;;8.63;6.70;;;;;;;;;;5115222;28;20455;-56
2021/08/04 12:40:42;;;;;;;6.90;5.70;;;;;;;;;;5116010;28;20455;-58
2021/08/04 12:43:12;;;;;;;9.10;7.00;;;;;;;;;;5114734;28;20513;-56
2021/08/04 12:45:47;;;;;;;9.53;5.97;;;;;;;;;;5111755;28;20448;-58
2021/08/04 12:48:45;;;;;;;8.00;6.70;;;;;;;;;;5115964;28;20454;-57
2021/08/04 12:51:13;;;;;;;8.73;6.10;;;;;;;;;;5019439;28;20487;-56
2021/08/04 12:53:47;;;;;;;6.73;4.77;;;;;;;;;;5101647;28;20431;-56
2021/08/04 12:59:23;;;;;;;9.47;5.87;;;;;;;;;;5104587;28;20481;-57
2021/08/04 13:01:51;;;;;;;5.20;4.40;;;;;;;;;;5095937;28;20460;-59
2021/08/04 13:04:24;;;;;;;7.53;5.50;;;;;;;;;;5096023;28;20452;-57
2021/08/04 13:06:53;;;;;;;10.47;8.20;;;;;;;;;;5108230;28;20455;-60
2021/08/04 13:09:22;;;;;;;8.23;5.30;;;;;;;;;;5114506;28;20522;-59
2021/08/04 13:12:24;;;;;;;7.53;5.53;;;;;;;;;;5113761;28;20448;-57
2021/08/04 13:15:15;;;;;;;8.83;6.47;;;;;;;;;;5017297;28;20506;-58
2021/08/04 13:17:51;;;;;;;8.70;5.80;;;;;;;;;;5098271;28;20523;-60
2021/08/04 13:20:19;;;;;;;9.90;6.40;;;;;;;;;;5113712;28;20873;-58
2021/08/04 13:23:06;;;;;;;7.53;6.43;;;;;;;;;;5112943;28;20483;-58
2021/08/04 13:28:47;;;;;;;8.50;5.20;;;;;;;;;;5113707;28;20439;-55
2021/08/04 13:31:23;;;;;;;8.00;6.30;;;;;;;;;;5114108;28;20476;-58
2021/08/04 13:33:58;;;;;;;10.90;6.77;;;;;;;;;;5113472;28;20443;-55
2021/08/04 13:36:37;;;;;;;6.30;5.53;;;;;;;;;;5111113;28;20458;-58
2021/08/04 13:39:07;;;;;;;8.67;5.43;;;;;;;;;;5096399;28;20459;-56
2021/08/04 13:41:36;;;;;;;8.00;5.83;;;;;;;;;;5113202;28;20476;-56
2021/08/04 13:44:29;;;;;;;7.00;4.37;;;;;;;;;;5104791;28;20513;-57
2021/08/04 13:46:56;;;;;;;5.50;4.30;;;;;;;;;;5108810;28;20514;-53
2021/08/04 13:49:23;;;;;;;12.47;4.17;;;;;;;;;;5113309;28;20503;-57
2021/08/04 13:51:52;;;;;;;6.93;3.83;;;;;;;;;;5109645;28;20487;-58
2021/08/04 13:54:19;;;;;;;10.53;3.73;;;;;;;;;;5112955;28;20459;-57
2021/08/04 13:56:56;;;;;;;5.80;4.00;;;;;;;;;;5113673;28;20466;-59
2021/08/04 14:00:00;;;;;;;10.63;4.07;;;;;;;;;;5096560;28;20458;-56
2021/08/04 14:02:30;;;;;;;5.40;4.30;;;;;;;;;;5108845;28;20490;-57
2021/08/04 14:05:06;;;;;;;5.50;4.70;;;;;;;;;;5114406;28;20523;-58
2021/08/04 14:07:37;;;;;;;6.00;4.47;;;;;;;;;;5114315;28;20481;-57
2021/08/04 14:10:37;;;;;;;8.50;5.77;;;;;;;;;;5114870;28;20416;-56
2021/08/04 14:13:17;;;;;;;6.83;4.50;;;;;;;;;;5110441;28;20451;-57
2021/08/04 14:15:56;;;;;;;7.33;4.50;;;;;;;;;;5115211;28;20450;-57
2021/08/04 14:18:34;;;;;;;8.00;5.27;;;;;;;;;;5115253;28;20443;-58
2021/08/04 14:24:00;;;;;;;6.00;4.20;;;;;;;;;;5114706;28;20502;-56
2021/08/04 14:26:30;;;;;;;8.10;4.70;;;;;;;;;;5114741;28;20439;-58
2021/08/04 14:29:00;;;;;;;6.40;4.90;;;;;;;;;;5116481;28;20535;-58
2021/08/04 14:31:55;;;;;;;9.20;5.67;;;;;;;;;;5115955;28;20427;-54
2021/08/04 14:34:25;;;;;;;7.40;5.73;;;;;;;;;;5115691;28;20459;-56
2021/08/04 14:36:53;;;;;;;9.13;5.50;;;;;;;;;;5115185;28;20459;-56
2021/08/04 14:39:26;;;;;;;6.40;5.00;;;;;;;;;;5116031;28;20443;-58
2021/08/04 14:42:04;;;;;;;9.00;6.20;;;;;;;;;;5113874;28;20447;-58
2021/08/04 14:44:35;;;;;;;5.90;4.77;;;;;;;;;;5112634;28;20501;-57
2021/08/04 14:47:02;;;;;;;8.17;6.23;;;;;;;;;;5125668;28;20490;-57
2021/08/04 14:49:52;;;;;;;8.37;6.00;;;;;;;;;;5129203;28;20453;-58
2021/08/04 14:52:22;;;;;;;7.60;5.70;;;;;;;;;;5108755;28;20463;-57
2021/08/04 14:54:50;;;;;;;9.30;6.60;;;;;;;;;;5094569;28;20424;-58
2021/08/04 14:57:38;;;;;;;7.50;6.17;;;;;;;;;;5107498;28;20511;-57
2021/08/04 15:00:18;;;;;;;8.00;6.30;;;;;;;;;;5115079;28;20439;-57
2021/08/04 15:05:54;;;;;;;8.10;6.17;;;;;;;;;;5105923;28;20434;-55
2021/08/04 15:08:23;;;;;;;8.33;6.27;;;;;;;;;;5108167;28;20439;-55
2021/08/04 15:10:57;;;;;;;8.03;5.53;;;;;;;;;;5101654;28;20460;-56
2021/08/04 15:13:27;;;;;;;7.33;5.33;;;;;;;;;;5111156;28;20496;-57
2021/08/04 15:16:06;;;;;;;9.07;6.40;;;;;;;;;;5110666;28;20447;-55
2021/08/04 15:18:34;;;;;;;6.40;5.60;;;;;;;;;;5114146;28;20443;-57
2021/08/04 15:21:15;;;;;;;8.33;6.37;;;;;;;;;;5113993;28;20439;-57
2021/08/04 15:24:03;;;;;;;8.10;5.50;;;;;;;;;;5114315;28;20590;-57
2021/08/04 15:26:32;;;;;;;10.13;6.47;;;;;;;;;;5105108;28;20522;-57
2021/08/04 15:29:03;;;;;;;7.60;6.33;;;;;;;;;;5108702;28;20513;-57
2021/08/04 15:31:33;;;;;;;5.87;4.90;;;;;;;;;;5114188;28;20447;-58
2021/08/04 15:37:04;;;;;;;8.43;5.60;;;;;;;;;;5095602;28;20516;-57
2021/08/04 15:39:32;;;;;;;8.07;4.93;;;;;;;;;;5114055;28;20444;-54
2021/08/04 15:42:14;;;;;;;12.20;6.50;;;;;;;;;;5114253;28;20443;-56